Latest Weather Observations for Cessnock Airport

IDN60801

Issued at 6:23 pm EST Saturday 9 May 2026 (issued every 10 minutes, with the page automatically refreshed every 10 minutes)

About weather observations | Map of weather stations | Latest weather observations for NSW | Other Formats
Station Details ID: 061260 Name: CESSNOCK AIRPORT AWS Lat: -32.79 Lon: 151.34 Height: 66.53 m
Data from the previous 72 hours. | See also: Recent months at Cessnock Airport
Date/Time
EST
Temp
°C
App
Temp
°C
Dew
Point
°C
Rel
Hum
%
Delta-T
°C
Wind Press
QNH
hPa
Press
MSL
hPa
Rain since
9am
mm
Dir  Spd
km/h
Gust
km/h
Spd
kts
Gust
kts
09/06:00pm 15.7 14.3 9.4 66 3.2 SE 7 11 4 6 1024.4 1024.4 0.0
09/05:30pm 17.1 15.6 9.0 59 4.2 E 7 11 4 6 1024.0 1024.0 0.0
09/05:00pm 18.6 16.2 8.8 53 5.1 ESE 11 17 6 9 1023.4 1023.4 0.0
09/04:30pm 20.0 16.9 8.7 48 5.9 SE 15 20 8 11 1023.0 1023.0 0.0
09/04:00pm 22.0 19.7 5.0 33 8.4 ENE 6 9 3 5 1022.7 1022.7 0.0
09/03:30pm 21.6 19.2 5.1 34 8.2 SE 7 11 4 6 1022.6 1022.6 0.0
09/03:00pm 22.0 19.6 5.4 34 8.3 ESE 7 13 4 7 1022.5 1022.5 0.0
09/02:30pm 22.1 19.4 5.5 34 8.3 SE 9 15 5 8 1022.5 1022.5 0.0
09/02:00pm 22.0 19.0 5.8 35 8.1 ESE 11 19 6 10 1022.5 1022.5 0.0
09/01:30pm 21.4 18.7 5.7 36 7.9 SE 9 15 5 8 1022.6 1022.6 0.0
09/01:00pm 21.3 18.8 6.4 38 7.5 ESE 9 15 5 8 1022.9 1022.9 0.0
09/12:30pm 21.5 19.5 7.0 39 7.4 ENE 7 13 4 7 1023.4 1023.4 0.0
09/12:00pm 20.5 18.5 6.1 39 7.2 ESE 6 15 3 8 1023.9 1023.9 0.0
09/11:30am 21.0 19.4 8.0 43 6.8 N 6 11 3 6 1024.4 1024.4 0.0
09/11:00am 19.6 17.4 7.7 46 6.1 N 9 15 5 8 1024.7 1024.7 0.0
09/10:30am 18.0 15.3 7.4 50 5.4 NNW 11 17 6 9 1025.2 1025.2 0.0
09/10:00am 17.0 14.3 7.4 53 4.8 NNW 11 15 6 8 1025.3 1025.3 0.0
09/09:30am 15.7 12.5 7.0 56 4.3 N 13 15 7 8 1025.4 1025.4 0.0
09/09:00am 14.8 12.1 7.4 61 3.6 N 11 13 6 7 1025.5 1025.5 0.0
09/08:30am 13.6 11.0 7.6 67 3.0 N 11 13 6 7 1025.4 1025.4 0.0
09/08:00am 11.7 9.3 7.2 74 2.2 NNW 9 13 5 7 1025.1 1025.1 0.0
09/07:30am 7.6 6.1 6.9 95 0.3 NNE 4 6 2 3 1024.7 1024.7 0.0
09/07:00am 5.1 2.7 4.5 96 0.3 NE 6 7 3 4 1024.4 1024.4 0.0
09/06:30am 3.8 2.3 3.1 95 0.3 CALM 0 0 0 0 1024.0 1024.0 0.0
09/06:00am 4.5 3.1 3.8 95 0.3 CALM 0 0 0 0 1023.7 1023.7 0.0
09/05:30am 4.3 2.9 3.6 95 0.3 CALM 0 0 0 0 1023.2 1023.2 0.0
09/05:00am 4.8 3.5 3.9 94 0.4 CALM 0 0 0 0 1023.0 1023.0 0.0
09/04:30am 4.8 3.4 3.6 92 0.5 CALM 0 0 0 0 1022.9 1022.9 0.0
09/04:00am 5.8 4.6 4.4 91 0.6 CALM 0 0 0 0 1022.8 1022.8 0.0
09/03:30am 6.4 5.2 4.7 89 0.7 CALM 0 0 0 0 1022.7 1022.7 0.0
09/03:00am 7.3 6.2 5.0 85 1.0 CALM 0 0 0 0 1022.6 1022.6 0.0
09/02:30am 7.7 6.5 4.8 82 1.3 CALM 0 0 0 0 1022.6 1022.6 0.0
09/02:00am 7.8 5.0 5.3 84 1.1 NE 9 11 5 6 1022.5 1022.5 0.0
09/01:30am 8.1 6.2 4.7 79 1.5 N 4 11 2 6 1022.5 1022.5 0.0
09/01:00am 8.3 6.1 5.4 82 1.3 N 6 11 3 6 1022.4 1022.4 0.0
09/12:30am 8.1 7.0 5.2 82 1.3 CALM 0 0 0 0 1022.4 1022.4 0.0
09/12:00am 9.4 7.2 5.2 75 1.9 NNW 6 11 3 6 1022.2 1022.2 0.0
 
Date/Time
EST
Temp
°C
App
Temp
°C
Dew
Point
°C
Rel
Hum
%
Delta-T
°C
Wind Press
QNH
hPa
Press
MSL
hPa
Rain since
9am
mm
Dir  Spd
km/h
Gust
km/h
Spd
kts
Gust
kts
08/11:30pm 8.9 6.7 5.3 78 1.6 N 6 11 3 6 1022.2 1022.2 0.0
08/11:00pm 9.5 6.7 5.3 75 1.9 NNE 9 13 5 7 1022.2 1022.2 0.0
08/10:30pm 13.2 10.9 5.6 60 3.6 NNW 7 13 4 7 1022.0 1022.0 0.0
08/10:00pm 14.0 10.5 5.6 57 4.0 W 13 22 7 12 1022.1 1022.1 0.0
08/09:30pm 13.9 10.8 5.5 57 4.0 WSW 11 15 6 8 1022.1 1022.1 0.0
08/09:00pm 13.9 11.2 5.5 57 4.0 WSW 9 15 5 8 1021.9 1021.9 0.0
08/08:30pm 14.3 11.6 5.4 55 4.2 WSW 9 17 5 9 1021.5 1021.5 0.0
08/08:00pm 13.5 11.1 5.2 57 3.9 WNW 7 11 4 6 1021.3 1021.3 0.0
08/07:30pm 14.1 11.8 4.7 53 4.4 NW 6 9 3 5 1021.0 1021.0 0.0
08/07:00pm 15.2 12.3 4.9 50 4.8 W 9 17 5 9 1020.5 1020.5 0.0
08/06:30pm 15.7 12.4 4.4 47 5.3 W 11 20 6 11 1019.8 1019.8 0.0
08/06:00pm 16.5 12.8 4.5 45 5.6 W 13 20 7 11 1019.1 1019.1 0.0
08/05:30pm 17.8 13.3 4.0 40 6.5 W 17 24 9 13 1018.4 1018.4 0.0
08/05:00pm 18.6 14.4 3.6 37 7.0 W 15 20 8 11 1017.6 1017.5 0.0
08/04:30pm 20.1 15.2 4.2 35 7.7 W 19 30 10 16 1017.0 1016.9 0.0
08/04:00pm 20.8 15.9 4.0 33 8.1 W 19 30 10 16 1016.5 1016.4 0.0
08/03:30pm 21.2 16.3 3.9 32 8.4 W 19 30 10 16 1016.2 1016.1 0.0
08/03:00pm 21.3 16.3 3.5 31 8.5 WNW 19 32 10 17 1016.1 1016.0 0.0
08/02:30pm 21.2 16.5 3.4 31 8.5 W 17 24 9 13 1016.1 1016.0 0.0
08/02:00pm 21.2 15.7 3.9 32 8.3 W 22 39 12 21 1016.2 1016.1 0.0
08/01:30pm 20.2 14.4 4.3 35 7.7 NW 24 35 13 19 1016.5 1016.4 0.0
08/01:00pm 20.0 14.4 3.7 34 7.8 NW 22 32 12 17 1016.8 1016.7 0.0
08/12:30pm 19.7 14.7 3.8 35 7.6 NNW 19 28 10 15 1017.3 1017.2 0.0
08/12:00pm 18.1 12.6 3.9 39 6.7 NNW 22 33 12 18 1018.0 1018.0 0.0
08/11:30am 17.2 11.7 3.8 41 6.3 NNW 22 32 12 17 1018.6 1018.6 0.0
08/11:00am 16.0 10.0 3.4 43 5.8 NW 24 32 13 17 1019.2 1019.2 0.0
08/10:30am 15.3 9.3 3.5 45 5.4 NW 24 32 13 17 1019.6 1019.6 0.0
08/10:00am 13.8 7.4 3.0 48 4.8 NNW 26 35 14 19 1019.8 1019.8 0.0
08/09:30am 12.5 6.7 2.1 49 4.5 NNW 22 32 12 17 1020.1 1020.1 0.0
08/09:00am 11.3 4.7 2.1 53 3.9 NNW 26 35 14 19 1020.2 1020.2 0.0
08/08:30am 10.3 4.4 1.9 56 3.5 NW 22 32 12 17 1020.1 1020.1 0.0
08/08:00am 9.2 3.0 1.9 60 3.0 NNW 24 39 13 21 1020.2 1020.2 0.0
08/07:30am 8.0 1.6 1.2 62 2.8 NNW 24 39 13 21 1019.7 1019.7 0.0
08/07:00am 7.1 1.7 1.2 66 2.4 N 19 28 10 15 1020.1 1020.1 0.0
08/06:30am 6.9 1.2 0.8 65 2.4 N 20 28 11 15 1020.0 1020.0 0.0
08/06:00am 6.8 1.7 0.9 66 2.3 N 17 24 9 13 1019.9 1019.9 0.0
08/05:30am 6.4 0.9 0.7 67 2.2 N 19 26 10 14 1019.4 1019.4 0.0
08/05:00am 6.8 1.7 0.7 65 2.4 N 17 24 9 13 1019.5 1019.5 0.0
08/04:30am 6.7 1.9 0.4 64 2.5 N 15 22 8 12 1019.5 1019.5 0.0
08/04:00am 6.8 2.0 0.0 62 2.6 N 15 20 8 11 1019.5 1019.5 0.0
08/03:30am 7.2 2.7 0.0 60 2.8 N 13 19 7 10 1019.6 1019.6 0.0
08/03:00am 7.7 3.2 -0.3 57 3.1 N 13 20 7 11 1019.7 1019.7 0.0
08/02:30am 8.7 4.9 -0.9 51 3.7 NW 9 17 5 9 1019.9 1019.9 0.0
08/02:00am 9.9 5.7 -0.6 48 4.2 W 11 20 6 11 1020.1 1020.1 0.0
08/01:30am 9.9 5.3 -0.9 47 4.3 W 13 20 7 11 1020.1 1020.1 0.0
08/01:00am 10.1 4.7 -1.0 46 4.4 W 17 30 9 16 1020.1 1020.1 0.0
08/12:30am 10.1 4.4 -1.0 46 4.4 W 19 30 10 16 1020.1 1020.1 0.0
08/12:00am 10.3 4.6 -0.8 46 4.4 W 19 30 10 16 1020.2 1020.2 0.0
 
Date/Time
EST
Temp
°C
App
Temp
°C
Dew
Point
°C
Rel
Hum
%
Delta-T
°C
Wind Press
QNH
hPa
Press
MSL
hPa
Rain since
9am
mm
Dir  Spd
km/h
Gust
km/h
Spd
kts
Gust
kts
07/11:30pm 10.3 4.6 -1.1 45 4.5 W 19 28 10 15 1020.1 1020.1 0.0
07/11:00pm 10.6 5.2 -1.1 44 4.6 W 17 32 9 17 1020.0 1020.0 0.0
07/10:30pm 10.3 6.1 -1.1 45 4.5 W 11 22 6 12 1020.3 1020.3 0.0
07/10:00pm 10.6 6.7 -1.4 43 4.7 WSW 9 17 5 9 1020.4 1020.4 0.0
07/09:30pm 11.2 6.5 -1.5 41 5.0 W 13 26 7 14 1020.4 1020.4 0.0
07/09:00pm 11.3 6.2 -1.8 40 5.1 W 15 26 8 14 1019.9 1019.9 0.0
07/08:30pm 11.6 6.1 -2.2 38 5.4 W 17 26 9 14 1019.7 1019.7 0.0
07/08:00pm 12.0 6.4 -2.6 36 5.6 W 17 28 9 15 1019.6 1019.6 0.0
07/07:30pm 12.6 6.4 -2.8 34 6.0 W 20 35 11 19 1019.5 1019.5 0.0
07/07:00pm 12.7 6.2 -2.7 34 6.0 W 22 37 12 20 1019.1 1019.1 0.0
07/06:30pm 13.1 6.9 -3.2 32 6.3 W 20 33 11 18 1018.7 1018.7 0.0
07/06:00pm 13.2 7.1 -3.5 31 6.4 W 19 30 10 16 1018.2 1018.2 0.0
07/05:30pm 13.7 7.5 -3.5 30 6.7 W 20 30 11 16 1017.7 1017.6 0.0
07/05:00pm 14.3 7.3 -3.9 28 7.0 W 24 37 13 20 1017.0 1016.9 0.0
07/04:30pm 15.3 8.2 -4.6 25 7.6 W 24 37 13 20 1016.6 1016.5 0.0
07/04:00pm 16.0 9.1 -5.7 22 8.2 WSW 22 39 12 21 1016.3 1016.2 0.0
07/03:40pm 16.3 8.3 -6.0 21 8.4 W 28 46 15 25 1015.7 1015.6 0.0
07/03:30pm 16.6 9.0 -5.8 21 8.5 W 26 46 14 25 1015.6 1015.5 0.0
07/03:27pm 16.6 8.6 -5.8 21 8.5 W 28 46 15 25 1015.7 1015.6 0.0
07/03:00pm 17.4 10.2 -5.1 21 8.7 W 24 39 13 21 1015.3 1015.2 0.0
07/02:48pm 17.2 9.2 -5.9 20 8.8 WNW 28 48 15 26 1014.9 1014.8 0.0
07/02:30pm 17.9 11.1 -4.7 21 8.9 W 22 33 12 18 1014.9 1014.8 0.0
07/02:00pm 17.5 9.6 -4.4 22 8.7 WSW 28 43 15 23 1014.3 1014.2 0.0
07/01:30pm 17.1 9.7 -0.6 30 7.5 WSW 28 46 15 25 1014.0 1013.9 0.0
07/01:27pm 17.0 9.8 0.6 33 7.2 WSW 28 46 15 25 1014.0 1013.9 0.0
07/01:00pm 18.1 13.1 6.3 46 5.8 WNW 22 33 12 18 1013.7 1013.6 0.0
07/12:30pm 18.3 13.5 7.4 49 5.5 NW 22 35 12 19 1013.8 1013.7 0.0
07/12:00pm 17.6 12.7 7.1 50 5.3 NW 22 33 12 18 1014.1 1014.0 0.0
07/11:30am 16.9 13.0 7.3 53 4.8 NNW 17 24 9 13 1014.7 1014.6 0.0
07/11:00am 16.3 11.7 6.7 53 4.7 NNW 20 30 11 16 1015.1 1015.0 0.0
07/10:30am 16.5 11.2 6.6 52 4.9 NW 24 33 13 18 1015.3 1015.2 0.0
07/10:00am 16.1 10.9 7.1 55 4.5 NW 24 33 13 18 1015.7 1015.6 0.0
07/09:30am 15.9 11.1 7.4 57 4.2 NW 22 35 12 19 1015.7 1015.6 0.0
07/09:00am 15.0 10.1 8.3 64 3.4 NW 24 35 13 19 1016.0 1015.9 0.0
07/08:30am 13.9 9.8 8.7 71 2.6 NNW 20 30 11 16 1016.0 1015.9 0.0
07/08:00am 13.1 9.7 9.0 76 2.1 NNW 17 22 9 12 1015.9 1015.8 0.0
07/07:30am 12.3 8.8 8.8 79 1.8 NNW 17 26 9 14 1015.7 1015.6 0.0
07/07:00am 11.8 8.6 8.5 80 1.6 NW 15 24 8 13 1015.3 1015.2 0.0
07/06:30am 11.6 8.1 8.6 82 1.5 NNW 17 24 9 13 1014.7 1014.6 0.0
07/06:00am 11.2 7.2 8.4 83 1.4 NNW 19 28 10 15 1014.4 1014.3 0.0
07/05:30am 11.6 8.9 8.8 83 1.4 NNW 13 20 7 11 1014.2 1014.1 0.0
07/05:00am 12.6 8.3 9.2 80 1.7 NNW 22 35 12 19 1013.9 1013.8 0.0
07/04:30am 11.9 8.5 9.3 84 1.3 NNW 17 20 9 11 1014.0 1013.9 0.0
07/04:00am 11.8 8.8 9.4 85 1.2 NNW 15 22 8 12 1013.9 1013.8 0.0
07/03:30am 12.0 9.9 11.2 95 0.4 NNW 13 17 7 9 1013.9 1013.8 0.0
07/03:00am 8.3 7.8 7.9 97 0.2 CALM 0 0 0 0 1014.1 1014.0 0.0
07/02:30am 8.6 8.2 8.2 97 0.2 CALM 0 0 0 0 1014.2 1014.1 0.0
07/02:00am 8.8 8.4 8.4 97 0.2 CALM 0 0 0 0 1014.5 1014.4 0.0
07/01:30am 8.4 7.9 8.0 97 0.2 CALM 0 0 0 0 1014.5 1014.4 0.0
07/01:00am 9.0 8.7 8.6 97 0.2 CALM 0 0 0 0 1014.8 1014.7 0.0
07/12:30am 9.6 9.4 9.1 97 0.2 CALM 0 0 0 0 1014.7 1014.6 0.0
07/12:00am 10.2 10.2 9.7 97 0.3 CALM 0 0 0 0 1014.9 1014.8 0.0
 
Date/Time
EST
Temp
°C
App
Temp
°C
Dew
Point
°C
Rel
Hum
%
Delta-T
°C
Wind Press
QNH
hPa
Press
MSL
hPa
Rain since
9am
mm
Dir  Spd
km/h
Gust
km/h
Spd
kts
Gust
kts
06/11:30pm 10.8 10.9 10.3 97 0.3 CALM 0 0 0 0 1015.0 1014.9 0.0
06/11:00pm 10.7 10.8 10.1 96 0.3 CALM 0 0 0 0 1015.3 1015.2 0.0
06/10:30pm 11.3 11.6 10.8 97 0.3 CALM 0 0 0 0 1015.6 1015.5 0.0
06/10:00pm 11.9 12.3 11.3 96 0.3 CALM 0 0 0 0 1015.9 1015.8 0.0
06/09:30pm 12.5 12.0 11.9 96 0.3 SW 6 7 3 4 1016.2 1016.1 0.0
06/09:00pm 12.1 11.8 11.5 96 0.3 SW 4 9 2 5 1016.4 1016.3 0.0
06/08:30pm 12.1 11.8 11.3 95 0.4 SW 4 9 2 5 1016.6 1016.5 0.0
06/08:00pm 13.4 12.8 12.3 93 0.6 SW 7 11 4 6 1016.7 1016.6 0.0
06/07:30pm 14.5 13.9 12.4 87 1.1 WSW 7 11 4 6 1016.6 1016.5 0.0
06/07:00pm 14.5 15.1 13.0 91 0.8 S 2 9 1 5 1016.6 1016.5 0.0
06/06:30pm 15.3 15.0 12.8 85 1.4 SE 6 7 3 4 1016.6 1016.5 0.0

Other formats

Comma delimited format used in spreadsheet applications
http://www.bom.gov.au/fwo/IDN60801/IDN60801.95771.axf

JavaScript Object Notation format (JSON) in row-major order
http://www.bom.gov.au/fwo/IDN60801/IDN60801.95771.json

Data quality

Most of these data are generated automatically and are frequently updated. Quality checks on data are not normally performed. It is possible for incorrect values to appear. Refer to information at About Latest Weather Observations and please check the disclaimer before using these data.